Time;durP1;ratioP1;P1;durP2;ratioP2;P2;SDS_P1;SDS_P2;PMS_P1;PMS_P2;Temp;Humidity;BMP_temperature;BMP_pressure;BME280_temperature;BME280_humidity;BME280_pressure;Samples;Min_cycle;Max_cycle;Signal;HPM_P1;HPM_P2
2022/12/09 00:01:22;;;;;;;41.80;22.10;;;0.70;38.90;;;;;;4982454;28;20469;-67
2022/12/09 00:03:50;;;;;;;46.00;23.97;;;0.70;39.10;;;;;;4986558;28;20457;-67
2022/12/09 00:06:18;;;;;;;41.43;22.93;;;0.70;38.90;;;;;;4980001;28;20464;-67
2022/12/09 00:08:45;;;;;;;51.33;23.90;;;0.70;39.00;;;;;;4979419;28;20465;-66
2022/12/09 00:11:12;;;;;;;68.87;24.93;;;0.70;39.60;;;;;;4976944;28;20452;-67
2022/12/09 00:13:39;;;;;;;48.30;22.73;;;0.70;39.00;;;;;;4984015;28;20457;-67
2022/12/09 00:16:07;;;;;;;66.30;25.00;;;0.70;39.10;;;;;;4979572;28;20465;-68
2022/12/09 00:18:34;;;;;;;37.70;24.27;;;0.70;39.10;;;;;;4984256;28;20468;-66
2022/12/09 00:21:13;;;;;;;56.10;25.00;;;0.70;39.10;;;;;;4983398;28;20481;-66
2022/12/09 00:23:40;;;;;;;48.50;23.30;;;0.60;39.20;;;;;;4982035;28;20456;-68
2022/12/09 00:26:07;;;;;;;77.00;24.67;;;0.60;39.10;;;;;;4980768;28;20483;-68
2022/12/09 00:28:34;;;;;;;44.17;23.33;;;0.60;39.30;;;;;;4982717;28;20988;-66
2022/12/09 00:31:01;;;;;;;71.20;22.47;;;0.50;39.40;;;;;;4978094;28;20483;-66
2022/12/09 00:33:29;;;;;;;46.73;23.73;;;0.50;39.50;;;;;;4984083;28;20457;-66
2022/12/09 00:36:02;;;;;;;45.90;22.20;;;0.50;39.70;;;;;;4976919;28;20467;-66
2022/12/09 00:38:30;;;;;;;39.67;22.10;;;0.50;39.90;;;;;;4978906;28;20499;-66
2022/12/09 00:40:57;;;;;;;72.10;24.30;;;0.40;39.90;;;;;;4975821;28;20478;-66
2022/12/09 00:43:24;;;;;;;58.33;23.10;;;0.40;40.00;;;;;;4979759;28;20465;-67
2022/12/09 00:45:50;;;;;;;36.23;21.70;;;0.40;40.00;;;;;;4979069;28;20467;-67
2022/12/09 00:48:17;;;;;;;33.50;21.17;;;0.40;40.00;;;;;;4983587;28;20489;-67
2022/12/09 00:50:45;;;;;;;95.40;25.20;;;0.40;40.00;;;;;;4976872;28;20462;-66
2022/12/09 00:53:12;;;;;;;37.63;21.00;;;0.40;39.90;;;;;;4977764;28;20970;-66
2022/12/09 00:55:41;;;;;;;46.60;21.47;;;0.30;39.90;;;;;;4979981;28;20847;-66
2022/12/09 00:58:08;;;;;;;53.83;22.87;;;0.30;40.00;;;;;;4985231;28;20484;-66
2022/12/09 01:00:34;;;;;;;42.90;25.47;;;0.30;40.00;;;;;;4975920;28;21231;-67
2022/12/09 01:03:01;;;;;;;51.33;22.10;;;0.30;40.00;;;;;;4977192;28;20859;-67
2022/12/09 01:05:28;;;;;;;53.73;22.23;;;0.30;40.00;;;;;;4981250;28;20479;-67
2022/12/09 01:07:55;;;;;;;42.13;24.90;;;0.30;40.10;;;;;;4979630;28;20532;-67
2022/12/09 01:10:21;;;;;;;50.33;25.03;;;0.30;40.10;;;;;;4984999;28;21015;-66
2022/12/09 01:12:49;;;;;;;51.33;23.27;;;0.30;40.10;;;;;;4979129;28;20453;-66
2022/12/09 01:15:16;;;;;;;49.73;21.67;;;0.30;39.90;;;;;;4986423;28;20473;-66
2022/12/09 01:17:43;;;;;;;63.17;23.00;;;0.20;39.80;;;;;;4984320;28;20485;-66
2022/12/09 01:20:10;;;;;;;45.70;23.20;;;0.20;39.80;;;;;;4984891;28;20480;-66
2022/12/09 01:22:37;;;;;;;40.37;20.27;;;0.20;39.80;;;;;;4985357;28;20588;-66
2022/12/09 01:25:05;;;;;;;56.03;20.43;;;0.10;40.50;;;;;;4985590;28;20465;-66
2022/12/09 01:27:31;;;;;;;37.20;20.03;;;0.10;40.00;;;;;;4985025;28;20481;-67
2022/12/09 01:29:59;;;;;;;38.97;19.57;;;0.10;40.00;;;;;;4984336;28;21000;-67
2022/12/09 01:32:26;;;;;;;39.43;23.23;;;0.10;40.10;;;;;;4977666;28;20485;-67
2022/12/09 01:34:53;;;;;;;34.17;22.37;;;0.10;40.00;;;;;;4984481;28;20476;-66
2022/12/09 01:37:20;;;;;;;52.17;20.07;;;0.10;40.00;;;;;;4980588;28;20507;-66
2022/12/09 01:39:46;;;;;;;31.53;20.90;;;0.10;39.90;;;;;;4984134;28;20475;-67
2022/12/09 01:42:20;;;;;;;31.07;19.83;;;0.00;39.80;;;;;;4984262;28;20448;-67
2022/12/09 01:45:20;;;;;;;30.83;20.47;;;0.10;39.90;;;;;;4984818;28;20469;-66
2022/12/09 01:47:51;;;;;;;31.73;19.40;;;0.00;39.90;;;;;;4984033;28;20473;-66
2022/12/09 01:50:19;;;;;;;25.57;17.67;;;0.00;39.70;;;;;;4983366;28;20471;-66
2022/12/09 01:52:47;;;;;;;35.53;22.60;;;0.00;39.80;;;;;;4985084;28;20843;-66
2022/12/09 01:55:14;;;;;;;29.07;20.10;;;0.10;39.70;;;;;;4986355;28;21023;-66
2022/12/09 01:57:43;;;;;;;33.23;21.70;;;0.10;39.80;;;;;;4981400;28;20487;-66
2022/12/09 02:00:11;;;;;;;30.93;20.93;;;0.00;39.60;;;;;;4990404;28;20460;-67
2022/12/09 02:02:39;;;;;;;27.57;19.30;;;0.10;39.60;;;;;;4982419;28;20483;-66
2022/12/09 02:05:08;;;;;;;27.83;19.17;;;0.10;39.70;;;;;;4982917;28;20975;-67
2022/12/09 02:07:35;;;;;;;30.00;19.20;;;0.10;39.60;;;;;;4988672;28;20479;-67
2022/12/09 02:10:04;;;;;;;29.70;19.40;;;0.10;39.60;;;;;;4988433;28;20456;-67
2022/12/09 02:12:41;;;;;;;26.53;18.13;;;0.20;39.60;;;;;;4986635;28;20936;-67
2022/12/09 02:15:12;;;;;;;26.47;18.70;;;0.10;39.50;;;;;;4984457;28;20468;-66
2022/12/09 02:17:41;;;;;;;26.90;19.00;;;0.20;39.40;;;;;;4981349;28;20503;-66
2022/12/09 02:20:17;;;;;;;25.20;18.87;;;0.20;39.30;;;;;;4985797;28;20456;-67
2022/12/09 02:22:47;;;;;;;27.30;19.63;;;0.20;39.30;;;;;;4985548;28;20471;-66
2022/12/09 02:25:28;;;;;;;25.50;16.10;;;0.30;39.30;;;;;;4983863;28;20465;-67
2022/12/09 02:28:12;;;;;;;26.10;18.00;;;0.30;39.20;;;;;;4983489;28;20488;-66
2022/12/09 02:30:48;;;;;;;26.37;16.07;;;0.30;39.10;;;;;;4988143;28;20479;-66
2022/12/09 02:33:26;;;;;;;29.30;18.60;;;0.30;38.80;;;;;;4979320;28;20552;-68
2022/12/09 02:35:56;;;;;;;25.07;17.03;;;0.30;38.90;;;;;;4986382;28;20464;-66
2022/12/09 02:38:27;;;;;;;26.60;17.27;;;0.30;38.80;;;;;;4985232;28;21078;-66
2022/12/09 02:40:58;;;;;;;25.77;18.40;;;0.40;38.70;;;;;;4985439;28;20488;-66
2022/12/09 02:43:30;;;;;;;27.23;17.17;;;0.40;38.60;;;;;;4988149;28;20500;-68
2022/12/09 02:45:59;;;;;;;27.30;16.33;;;0.40;38.40;;;;;;4988281;28;20471;-66
2022/12/09 02:48:30;;;;;;;23.07;15.17;;;0.50;38.30;;;;;;4988007;28;20480;-67
2022/12/09 02:50:59;;;;;;;22.23;15.13;;;0.50;38.30;;;;;;4988602;28;20456;-67
2022/12/09 02:53:26;;;;;;;25.93;16.33;;;0.50;38.30;;;;;;4989751;28;20983;-67
2022/12/09 02:55:55;;;;;;;22.03;15.70;;;0.50;38.30;;;;;;4987868;28;20460;-67
2022/12/09 02:58:22;;;;;;;21.63;14.60;;;0.50;38.30;;;;;;4987156;28;20477;-66
2022/12/09 03:00:50;;;;;;;29.00;16.60;;;0.60;38.20;;;;;;4986006;28;20480;-66
2022/12/09 03:03:18;;;;;;;22.57;16.00;;;0.60;38.20;;;;;;4988940;28;21067;-67
2022/12/09 03:05:52;;;;;;;25.50;16.60;;;0.60;38.20;;;;;;4987404;28;20988;-67
2022/12/09 03:08:30;;;;;;;23.30;14.40;;;0.60;38.20;;;;;;4982100;28;20491;-66
2022/12/09 03:11:00;;;;;;;22.90;15.57;;;0.60;38.10;;;;;;4982628;28;20445;-66
2022/12/09 03:13:38;;;;;;;29.93;15.80;;;0.70;38.20;;;;;;4988197;28;20464;-66
2022/12/09 03:16:09;;;;;;;23.30;15.37;;;0.70;38.10;;;;;;4980649;28;20460;-66
2022/12/09 03:18:39;;;;;;;25.07;16.10;;;0.60;38.00;;;;;;4980213;28;20457;-66
2022/12/09 03:21:07;;;;;;;22.53;15.80;;;0.70;38.10;;;;;;4983350;28;20487;-67
2022/12/09 03:23:36;;;;;;;23.13;15.23;;;0.70;38.00;;;;;;4981993;28;20988;-66
2022/12/09 03:26:05;;;;;;;25.70;15.57;;;0.60;38.00;;;;;;4986271;28;20460;-66
2022/12/09 03:28:36;;;;;;;24.67;15.67;;;0.70;38.10;;;;;;4982242;28;20480;-66
2022/12/09 03:31:07;;;;;;;28.50;17.40;;;0.70;38.20;;;;;;4988137;28;20476;-66
2022/12/09 03:33:33;;;;;;;21.67;14.57;;;0.70;38.20;;;;;;4986845;28;20461;-67
2022/12/09 03:36:03;;;;;;;25.80;16.37;;;0.70;38.20;;;;;;4986773;28;20449;-67
2022/12/09 03:38:36;;;;;;;24.50;16.50;;;0.70;38.30;;;;;;4987311;28;20884;-66
2022/12/09 03:41:10;;;;;;;28.20;17.70;;;0.80;38.30;;;;;;4985747;28;20847;-66
2022/12/09 03:43:42;;;;;;;27.00;17.13;;;0.80;38.30;;;;;;4985718;28;20460;-66
2022/12/09 03:46:09;;;;;;;22.30;16.23;;;0.90;38.90;;;;;;4984088;28;20469;-67
2022/12/09 03:48:36;;;;;;;27.57;16.50;;;0.90;38.40;;;;;;4982370;28;20488;-66
2022/12/09 03:51:09;;;;;;;26.70;16.90;;;1.00;38.30;;;;;;4985508;28;20476;-66
2022/12/09 03:53:41;;;;;;;24.13;16.20;;;1.00;38.20;;;;;;4986193;28;20461;-67
2022/12/09 03:56:13;;;;;;;26.43;17.97;;;1.00;38.20;;;;;;4983857;28;21133;-66
2022/12/09 03:58:44;;;;;;;25.47;16.67;;;1.00;38.10;;;;;;4985144;28;20460;-66
2022/12/09 04:01:11;;;;;;;23.40;16.17;;;1.00;38.20;;;;;;4982990;28;20469;-66
2022/12/09 04:03:38;;;;;;;26.60;17.37;;;1.00;38.10;;;;;;4982131;28;20471;-66
2022/12/09 04:06:05;;;;;;;28.43;17.07;;;1.00;38.10;;;;;;4981779;28;20469;-66
2022/12/09 04:08:32;;;;;;;24.30;16.40;;;1.10;38.00;;;;;;4980159;28;20488;-66
2022/12/09 04:10:59;;;;;;;24.67;16.10;;;1.10;38.60;;;;;;4981769;28;20951;-66
2022/12/09 04:13:27;;;;;;;25.27;16.93;;;1.10;38.00;;;;;;4984054;28;20457;-66
2022/12/09 04:15:53;;;;;;;25.40;17.17;;;1.10;37.90;;;;;;4983830;28;20495;-66
2022/12/09 04:18:20;;;;;;;31.20;17.67;;;1.10;37.70;;;;;;4985734;28;20616;-66
2022/12/09 04:20:47;;;;;;;26.97;17.80;;;1.10;37.70;;;;;;4980817;28;20461;-66
2022/12/09 04:23:14;;;;;;;27.20;18.37;;;1.10;37.80;;;;;;4982414;28;20993;-66
2022/12/09 04:25:40;;;;;;;27.10;17.30;;;1.10;37.80;;;;;;4983961;28;20457;-66
2022/12/09 04:28:07;;;;;;;24.57;15.60;;;1.10;37.80;;;;;;4983321;28;20510;-66
2022/12/09 04:30:35;;;;;;;31.20;16.53;;;1.10;37.80;;;;;;4979164;28;20477;-66
2022/12/09 04:33:02;;;;;;;30.73;16.97;;;1.10;37.80;;;;;;4987433;28;20453;-66
2022/12/09 04:35:29;;;;;;;30.57;17.30;;;1.20;37.80;;;;;;4976999;28;21587;-66
2022/12/09 04:37:56;;;;;;;31.03;17.27;;;1.20;37.80;;;;;;4980918;28;20496;-66
2022/12/09 04:40:22;;;;;;;24.00;15.97;;;1.20;37.80;;;;;;4984767;28;20468;-66
2022/12/09 04:42:49;;;;;;;28.07;17.13;;;1.20;37.90;;;;;;4983245;28;20481;-66
2022/12/09 04:45:16;;;;;;;26.80;17.60;;;1.20;37.90;;;;;;4986032;28;20469;-66
2022/12/09 04:47:44;;;;;;;34.27;17.67;;;1.20;37.90;;;;;;4986468;28;21018;-66
2022/12/09 04:50:12;;;;;;;33.10;17.97;;;1.20;38.00;;;;;;4987387;28;20461;-66
2022/12/09 04:52:38;;;;;;;31.83;16.70;;;1.20;38.00;;;;;;4983850;28;20996;-66
2022/12/09 04:55:06;;;;;;;27.17;16.53;;;1.20;38.00;;;;;;4982198;28;20464;-66
2022/12/09 04:57:33;;;;;;;29.00;17.53;;;1.20;38.00;;;;;;4985535;28;20487;-66
2022/12/09 05:00:00;;;;;;;28.40;16.80;;;1.20;38.10;;;;;;4985591;28;20461;-66
2022/12/09 05:02:26;;;;;;;26.37;15.90;;;1.20;38.10;;;;;;4982246;28;20468;-66
2022/12/09 05:04:55;;;;;;;26.30;15.47;;;1.20;38.30;;;;;;4982884;28;20477;-66
2022/12/09 05:07:23;;;;;;;29.23;18.80;;;1.20;38.30;;;;;;4985916;28;21031;-65
2022/12/09 05:09:50;;;;;;;27.43;17.37;;;1.20;38.30;;;;;;4981662;28;20484;-66
2022/12/09 05:12:17;;;;;;;27.93;18.20;;;1.20;38.30;;;;;;4985185;28;20463;-67
2022/12/09 05:14:44;;;;;;;28.53;17.63;;;1.20;38.40;;;;;;4982986;28;20539;-64
2022/12/09 05:17:11;;;;;;;27.63;17.37;;;1.20;38.40;;;;;;4983938;28;20492;-67
2022/12/09 05:19:37;;;;;;;28.60;18.10;;;1.20;38.50;;;;;;4984218;28;20457;-67
2022/12/09 05:22:05;;;;;;;29.37;16.50;;;1.20;38.60;;;;;;4985228;28;21015;-67
2022/12/09 05:24:32;;;;;;;26.77;18.23;;;1.30;38.70;;;;;;4984700;28;20981;-66
2022/12/09 05:26:59;;;;;;;29.63;18.27;;;1.20;38.60;;;;;;4986510;28;20477;-67
2022/12/09 05:29:26;;;;;;;30.83;18.67;;;1.20;38.60;;;;;;4987441;28;20456;-67
2022/12/09 05:31:53;;;;;;;30.63;18.83;;;1.30;38.80;;;;;;4986937;28;20476;-67
2022/12/09 05:34:20;;;;;;;23.50;17.10;;;1.30;38.70;;;;;;4986637;28;20460;-66
2022/12/09 05:36:47;;;;;;;31.60;17.47;;;1.30;38.70;;;;;;4987088;28;20492;-67
2022/12/09 05:39:15;;;;;;;28.33;17.70;;;1.30;38.70;;;;;;4984212;28;20471;-72
2022/12/09 05:41:42;;;;;;;28.60;17.67;;;1.30;38.60;;;;;;4986205;28;20483;-73
2022/12/09 05:44:10;;;;;;;26.90;17.07;;;1.30;38.60;;;;;;4985301;28;20463;-72
2022/12/09 05:46:37;;;;;;;28.93;16.63;;;1.30;38.60;;;;;;4977023;28;20491;-72
2022/12/09 05:49:03;;;;;;;25.60;16.10;;;1.40;38.50;;;;;;4986027;28;21000;-75
2022/12/09 05:51:31;;;;;;;28.27;18.67;;;1.40;38.50;;;;;;4988662;28;20510;-73
2022/12/09 05:54:01;;;;;;;26.40;17.13;;;1.40;38.50;;;;;;4977672;28;20468;-73
2022/12/09 05:56:30;;;;;;;28.67;17.90;;;1.40;38.50;;;;;;4984958;28;21024;-73
2022/12/09 05:58:58;;;;;;;26.37;16.80;;;1.40;38.60;;;;;;4973587;28;20475;-74
2022/12/09 06:01:26;;;;;;;29.17;18.47;;;1.40;38.50;;;;;;4987117;28;20578;-74
2022/12/09 06:03:54;;;;;;;32.53;17.77;;;1.40;38.40;;;;;;4977255;28;20544;-74
2022/12/09 06:06:22;;;;;;;32.70;18.23;;;1.40;39.10;;;;;;4987970;28;20453;-74
2022/12/09 06:08:49;;;;;;;28.73;16.93;;;1.40;38.50;;;;;;4982530;28;20469;-71
2022/12/09 06:11:17;;;;;;;34.90;18.67;;;1.40;39.10;;;;;;4978068;28;20476;-73
2022/12/09 06:13:46;;;;;;;30.70;19.10;;;1.40;38.60;;;;;;4979646;28;20472;-71
2022/12/09 06:16:14;;;;;;;28.10;18.30;;;1.50;38.60;;;;;;4982839;28;20649;-71
2022/12/09 06:18:40;;;;;;;31.70;18.80;;;1.50;38.60;;;;;;4985121;28;20964;-71
2022/12/09 06:21:09;;;;;;;31.03;18.50;;;1.50;38.60;;;;;;4983203;28;20467;-74
2022/12/09 06:23:37;;;;;;;27.90;17.53;;;1.50;38.70;;;;;;4980091;28;20676;-70
2022/12/09 06:26:04;;;;;;;29.70;17.20;;;1.50;38.60;;;;;;4978538;28;20465;-70
2022/12/09 06:28:31;;;;;;;30.07;17.60;;;1.50;38.60;;;;;;4978166;28;20968;-71
2022/12/09 06:31:00;;;;;;;28.10;16.63;;;1.60;38.70;;;;;;4976472;28;20484;-71
2022/12/09 06:33:27;;;;;;;37.70;20.87;;;1.50;38.70;;;;;;4979159;28;20952;-70
2022/12/09 06:35:54;;;;;;;30.03;18.43;;;1.60;38.60;;;;;;4978280;28;20982;-70
2022/12/09 06:38:21;;;;;;;33.27;19.60;;;1.60;38.60;;;;;;4978956;28;20496;-74
2022/12/09 06:40:48;;;;;;;34.07;18.67;;;1.60;38.60;;;;;;4977125;28;20465;-74
2022/12/09 06:43:15;;;;;;;31.67;17.87;;;1.60;38.60;;;;;;4983532;28;20480;-74
2022/12/09 06:45:41;;;;;;;29.43;18.20;;;1.60;38.60;;;;;;4988661;28;20468;-74
2022/12/09 06:48:09;;;;;;;29.40;18.00;;;1.60;38.60;;;;;;4987648;28;20571;-73
2022/12/09 06:50:37;;;;;;;32.67;19.50;;;1.70;38.60;;;;;;4987508;28;20461;-72
2022/12/09 06:53:04;;;;;;;29.87;18.97;;;1.60;38.50;;;;;;4982295;28;20461;-73
2022/12/09 06:55:30;;;;;;;32.03;18.40;;;1.70;38.60;;;;;;4986729;28;20467;-69
2022/12/09 06:57:58;;;;;;;32.20;19.17;;;1.70;38.60;;;;;;4985135;28;20857;-72
2022/12/09 07:00:25;;;;;;;31.20;19.00;;;1.60;38.50;;;;;;4985730;28;20471;-68
2022/12/09 07:02:53;;;;;;;34.60;18.87;;;1.70;38.50;;;;;;4984133;28;20856;-72
2022/12/09 07:05:21;;;;;;;31.87;19.27;;;1.70;38.50;;;;;;4987459;28;20456;-74
2022/12/09 07:07:50;;;;;;;31.73;19.43;;;1.70;38.60;;;;;;4988241;28;20495;-75
2022/12/09 07:10:17;;;;;;;32.60;19.53;;;1.70;38.60;;;;;;4986494;28;20514;-73
2022/12/09 07:12:44;;;;;;;33.47;21.10;;;1.70;38.60;;;;;;4982007;28;20826;-67
2022/12/09 07:15:11;;;;;;;32.40;19.27;;;1.70;38.40;;;;;;4984991;28;20544;-67
2022/12/09 07:17:38;;;;;;;34.33;20.87;;;1.80;38.40;;;;;;4983907;28;20480;-67
2022/12/09 07:20:06;;;;;;;32.37;18.90;;;1.80;38.30;;;;;;4981728;28;20464;-75
2022/12/09 07:22:34;;;;;;;33.40;19.17;;;1.80;38.30;;;;;;4986278;28;20492;-71
2022/12/09 07:25:01;;;;;;;42.70;22.20;;;1.80;38.30;;;;;;4987863;28;20850;-69
2022/12/09 07:27:28;;;;;;;33.67;20.20;;;1.80;38.30;;;;;;4990378;28;20598;-65
2022/12/09 07:29:56;;;;;;;37.17;21.17;;;1.80;38.20;;;;;;4985103;28;20473;-68
2022/12/09 07:32:22;;;;;;;34.27;20.73;;;1.80;38.20;;;;;;4988039;28;20567;-74
2022/12/09 07:34:50;;;;;;;39.10;21.60;;;1.90;38.20;;;;;;4988430;28;20464;-74
2022/12/09 07:37:16;;;;;;;36.77;20.97;;;1.80;38.20;;;;;;4985743;28;20484;-74
2022/12/09 07:39:44;;;;;;;40.53;23.30;;;1.90;38.30;;;;;;4985804;28;20468;-73
2022/12/09 07:42:11;;;;;;;32.50;20.63;;;1.90;38.10;;;;;;4987995;28;21032;-75
2022/12/09 07:44:38;;;;;;;36.97;21.30;;;1.90;38.00;;;;;;4976903;28;20461;-74
2022/12/09 07:47:05;;;;;;;36.63;20.97;;;1.90;38.00;;;;;;4982406;28;20961;-70
2022/12/09 07:49:31;;;;;;;36.10;21.37;;;1.90;38.10;;;;;;4987260;28;20488;-70
2022/12/09 07:51:58;;;;;;;36.77;21.03;;;1.90;38.10;;;;;;4983096;28;20473;-69
2022/12/09 07:54:25;;;;;;;40.03;22.40;;;1.90;38.10;;;;;;4983188;28;20471;-70
2022/12/09 07:56:53;;;;;;;33.30;19.93;;;2.00;38.10;;;;;;4984304;28;20498;-71
2022/12/09 07:59:20;;;;;;;41.17;22.53;;;2.00;38.00;;;;;;4987431;28;20457;-71
2022/12/09 08:01:47;;;;;;;43.00;23.30;;;2.00;38.10;;;;;;4985555;28;20464;-70
2022/12/09 08:04:13;;;;;;;36.10;22.63;;;2.00;38.00;;;;;;4980215;28;20993;-80
2022/12/09 08:06:40;;;;;;;40.90;21.90;;;2.00;38.10;;;;;;4982019;28;20500;-71
2022/12/09 08:09:12;;;;;;;44.07;23.50;;;2.00;38.20;;;;;;4984645;28;20933;-71
2022/12/09 08:11:40;;;;;;;39.87;21.67;;;2.00;38.20;;;;;;4980608;28;20458;-76
2022/12/09 08:14:10;;;;;;;40.00;21.63;;;2.00;38.20;;;;;;4987532;28;21134;-81
2022/12/09 08:16:37;;;;;;;40.70;24.43;;;2.10;38.20;;;;;;4985409;28;21138;-71
2022/12/09 08:19:04;;;;;;;43.03;21.80;;;2.10;38.30;;;;;;4985194;28;20465;-74
2022/12/09 08:21:32;;;;;;;40.83;22.90;;;2.10;38.30;;;;;;4982307;28;20674;-71
2022/12/09 08:24:01;;;;;;;41.00;23.60;;;2.10;38.20;;;;;;4979173;28;20568;-70
2022/12/09 08:26:29;;;;;;;44.80;24.27;;;2.10;38.20;;;;;;4978540;28;20806;-71
2022/12/09 08:28:56;;;;;;;39.73;23.10;;;2.10;38.10;;;;;;4984767;28;20468;-70
2022/12/09 08:31:26;;;;;;;37.80;21.10;;;2.20;38.20;;;;;;4984537;28;20613;-70
2022/12/09 08:33:53;;;;;;;37.40;22.90;;;2.20;38.10;;;;;;4983034;28;20457;-70
2022/12/09 08:36:22;;;;;;;39.90;23.20;;;2.20;38.10;;;;;;4985273;28;20697;-71
2022/12/09 08:38:49;;;;;;;39.10;23.20;;;2.30;38.20;;;;;;4978775;28;21528;-76
2022/12/09 08:41:17;;;;;;;40.97;24.07;;;2.40;38.00;;;;;;4979498;28;20471;-76
2022/12/09 08:43:45;;;;;;;40.33;22.20;;;2.40;38.00;;;;;;4983981;28;20481;-81
2022/12/09 08:46:12;;;;;;;46.17;25.10;;;2.40;38.00;;;;;;4979170;28;20464;-71
2022/12/09 08:48:41;;;;;;;39.13;23.33;;;2.50;38.10;;;;;;4982310;28;20464;-72
2022/12/09 08:51:09;;;;;;;44.73;24.57;;;2.50;38.00;;;;;;4975487;28;20975;-71
2022/12/09 08:53:36;;;;;;;37.80;23.17;;;2.60;37.90;;;;;;4975926;28;20460;-70
2022/12/09 08:56:09;;;;;;;38.50;22.00;;;2.70;37.80;;;;;;4983330;28;20461;-69
2022/12/09 08:58:36;;;;;;;36.30;23.40;;;2.80;37.80;;;;;;4976559;28;20853;-72
2022/12/09 09:01:02;;;;;;;37.20;22.37;;;2.80;37.70;;;;;;4978182;28;21012;-70
2022/12/09 09:03:29;;;;;;;38.50;22.00;;;2.90;37.70;;;;;;4977307;28;20493;-76
2022/12/09 09:06:02;;;;;;;44.23;25.47;;;3.00;37.60;;;;;;4979153;28;20457;-76
2022/12/09 09:08:29;;;;;;;38.87;22.43;;;3.00;37.50;;;;;;4976345;28;20992;-80
2022/12/09 09:10:56;;;;;;;40.07;24.40;;;3.00;37.40;;;;;;4982071;28;20468;-78
2022/12/09 09:13:23;;;;;;;37.50;23.50;;;3.00;37.50;;;;;;4973399;28;20460;-86
2022/12/09 09:15:49;;;;;;;39.67;21.77;;;3.00;37.50;;;;;;4983402;28;20540;-73
2022/12/09 09:18:16;;;;;;;40.97;23.87;;;3.00;37.50;;;;;;4984183;28;20516;-72
2022/12/09 09:20:46;;;;;;;39.90;22.93;;;3.00;37.50;;;;;;4977486;28;20461;-84
2022/12/09 09:23:14;;;;;;;35.53;21.40;;;3.10;37.50;;;;;;4982823;28;20923;-75
2022/12/09 09:25:41;;;;;;;36.50;21.80;;;3.10;38.00;;;;;;4978635;28;20465;-75
2022/12/09 09:28:08;;;;;;;34.20;21.07;;;3.20;37.30;;;;;;4978682;28;20485;-74
2022/12/09 09:30:35;;;;;;;35.10;20.13;;;3.20;37.30;;;;;;4983595;28;20468;-71
2022/12/09 09:33:02;;;;;;;34.57;20.63;;;3.30;37.10;;;;;;4979116;28;20469;-71
2022/12/09 09:35:29;;;;;;;35.70;21.57;;;3.40;37.10;;;;;;4981358;28;20495;-71
2022/12/09 09:37:56;;;;;;;34.73;20.83;;;3.40;37.10;;;;;;4982488;28;20594;-71
2022/12/09 09:40:24;;;;;;;31.70;20.17;;;3.50;37.10;;;;;;4981463;28;20518;-71
2022/12/09 09:42:53;;;;;;;37.10;20.13;;;3.50;37.00;;;;;;4981298;28;20497;-71
2022/12/09 09:45:23;;;;;;;34.60;21.00;;;3.60;36.90;;;;;;4983634;28;20460;-70
2022/12/09 09:47:53;;;;;;;35.73;21.50;;;3.60;36.70;;;;;;4981524;28;20476;-76
2022/12/09 09:50:28;;;;;;;30.27;19.57;;;3.60;36.70;;;;;;4984379;28;20459;-71
2022/12/09 09:52:55;;;;;;;34.57;20.73;;;3.70;36.60;;;;;;4975487;28;21248;-71
2022/12/09 09:55:39;;;;;;;32.93;20.73;;;3.70;36.50;;;;;;4978797;28;20461;-71
2022/12/09 09:58:14;;;;;;;31.93;18.30;;;3.90;36.30;;;;;;4978872;28;20499;-79
2022/12/09 10:00:47;;;;;;;35.37;20.80;;;3.90;35.80;;;;;;4975388;28;20472;-75
2022/12/09 10:03:23;;;;;;;30.87;19.10;;;3.90;35.80;;;;;;4978814;28;20484;-86
2022/12/09 10:05:54;;;;;;;33.93;20.67;;;3.90;35.90;;;;;;4978069;28;20467;-77
2022/12/09 10:08:31;;;;;;;33.23;19.30;;;4.00;35.90;;;;;;4979805;28;20906;-79
2022/12/09 10:11:14;;;;;;;32.40;20.20;;;4.00;35.90;;;;;;4981946;28;20469;-80
2022/12/09 10:13:47;;;;;;;28.87;18.53;;;3.90;35.60;;;;;;4978776;28;20453;-79
2022/12/09 10:16:17;;;;;;;28.13;18.70;;;3.90;35.60;;;;;;4986590;28;20464;-84
2022/12/09 10:19:02;;;;;;;33.03;19.50;;;3.90;35.50;;;;;;4992554;28;20456;-77
2022/12/09 10:21:31;;;;;;;29.67;19.37;;;3.90;35.60;;;;;;4986527;28;20522;-79
2022/12/09 10:24:06;;;;;;;37.60;21.03;;;3.90;35.60;;;;;;4984873;28;20474;-76
2022/12/09 10:26:35;;;;;;;42.00;23.07;;;3.90;35.60;;;;;;4986397;28;20503;-76
2022/12/09 10:29:11;;;;;;;34.50;20.20;;;3.90;35.70;;;;;;4981245;28;20628;-75
2022/12/09 10:31:38;;;;;;;33.67;20.30;;;3.90;35.60;;;;;;4978075;28;20473;-76
2022/12/09 10:34:05;;;;;;;40.30;24.20;;;3.90;35.60;;;;;;4979478;28;20991;-75
2022/12/09 10:36:33;;;;;;;34.77;23.23;;;4.00;35.40;;;;;;4984687;28;21353;-75
2022/12/09 10:39:00;;;;;;;38.40;22.43;;;4.00;35.40;;;;;;4984638;28;20461;-76
2022/12/09 10:44:32;;;;;;;34.63;21.80;;;3.90;35.40;;;;;;4987677;28;20475;-77
2022/12/09 10:47:01;;;;;;;34.83;21.97;;;3.90;35.30;;;;;;4983929;28;20484;-75
2022/12/09 10:49:29;;;;;;;30.70;19.63;;;3.90;35.30;;;;;;4984249;28;20457;-74
2022/12/09 10:51:56;;;;;;;40.03;23.33;;;3.90;35.40;;;;;;4982523;28;20475;-75
2022/12/09 10:54:32;;;;;;;32.93;20.03;;;3.90;35.50;;;;;;4979996;28;20465;-78
2022/12/09 10:57:22;;;;;;;30.57;19.73;;;3.90;35.70;;;;;;4974925;28;20523;-75
2022/12/09 11:00:01;;;;;;;29.30;17.47;;;3.90;35.80;;;;;;4982517;28;20897;-75
2022/12/09 11:02:29;;;;;;;35.70;20.40;;;3.90;35.60;;;;;;4983501;28;20483;-75
2022/12/09 11:05:16;;;;;;;35.17;20.57;;;3.90;35.70;;;;;;4979262;28;20465;-71
2022/12/09 11:07:47;;;;;;;28.20;18.77;;;3.90;35.60;;;;;;4991330;28;20498;-75
2022/12/09 11:10:18;;;;;;;30.10;19.53;;;4.00;35.60;;;;;;4982873;28;20465;-74
2022/12/09 11:12:51;;;;;;;35.30;18.60;;;3.90;35.60;;;;;;4982938;28;20584;-78
2022/12/09 11:15:35;;;;;;;31.53;18.93;;;3.90;35.70;;;;;;4986469;28;20465;-74
2022/12/09 11:18:04;;;;;;;31.70;19.20;;;3.90;35.80;;;;;;4984680;28;20523;-73
2022/12/09 11:20:33;;;;;;;31.87;20.87;;;3.90;35.70;;;;;;4981607;28;20505;-73
2022/12/09 11:23:03;;;;;;;28.27;19.37;;;3.90;35.80;;;;;;4980870;28;20507;-73
2022/12/09 11:25:32;;;;;;;28.07;18.87;;;3.90;35.70;;;;;;4984366;28;20563;-75
2022/12/09 11:28:02;;;;;;;30.03;18.30;;;3.90;35.80;;;;;;4981882;28;20863;-76
2022/12/09 11:30:32;;;;;;;28.83;18.47;;;3.90;35.80;;;;;;4979873;28;20456;-76
2022/12/09 11:33:07;;;;;;;33.00;20.53;;;3.90;35.90;;;;;;4980624;28;20468;-77
2022/12/09 11:35:39;;;;;;;29.43;20.00;;;3.90;35.70;;;;;;4984674;28;20488;-76
2022/12/09 11:38:18;;;;;;;40.47;20.47;;;3.80;35.70;;;;;;4980762;28;21031;-76
2022/12/09 11:41:00;;;;;;;30.60;19.87;;;3.90;35.70;;;;;;4980499;28;20468;-73
2022/12/09 11:43:33;;;;;;;34.20;22.53;;;3.90;35.70;;;;;;4981809;28;20468;-74
2022/12/09 11:46:00;;;;;;;32.00;21.17;;;3.80;35.70;;;;;;4977083;28;20465;-74
2022/12/09 11:48:29;;;;;;;30.73;20.17;;;3.80;35.80;;;;;;4979569;28;20499;-74
2022/12/09 11:50:57;;;;;;;36.70;20.80;;;3.80;35.90;;;;;;4982308;28;21170;-73
2022/12/09 11:53:27;;;;;;;31.33;20.00;;;3.80;36.10;;;;;;4983143;28;20888;-73
2022/12/09 11:55:59;;;;;;;30.40;18.50;;;3.80;36.00;;;;;;4981397;28;20477;-73
2022/12/09 11:58:30;;;;;;;29.73;19.90;;;3.80;36.00;;;;;;4987010;28;20472;-73
2022/12/09 12:01:02;;;;;;;30.83;19.90;;;3.80;35.90;;;;;;4981129;28;20478;-73
2022/12/09 12:03:36;;;;;;;28.03;19.40;;;3.80;36.00;;;;;;4981312;28;20489;-73
2022/12/09 12:06:07;;;;;;;29.77;19.40;;;3.90;36.10;;;;;;4979977;28;20468;-73
2022/12/09 12:08:38;;;;;;;28.70;20.47;;;3.90;36.10;;;;;;4982871;28;20464;-73
2022/12/09 12:11:08;;;;;;;29.80;20.43;;;3.90;36.10;;;;;;4983556;28;20969;-73
2022/12/09 12:13:41;;;;;;;30.37;20.50;;;3.90;35.90;;;;;;4977428;28;20460;-73
2022/12/09 12:16:13;;;;;;;30.27;21.43;;;3.90;35.90;;;;;;4980448;28;20468;-73
2022/12/09 12:18:46;;;;;;;32.43;20.90;;;3.90;35.90;;;;;;4982607;28;20511;-73
2022/12/09 12:21:26;;;;;;;31.77;21.03;;;3.90;35.90;;;;;;4981807;28;20969;-73
2022/12/09 12:24:36;;;;;;;36.40;20.27;;;4.00;36.00;;;;;;4978682;28;20476;-74
2022/12/09 12:27:14;;;;;;;33.27;22.30;;;4.00;36.00;;;;;;4958509;28;20488;-73
2022/12/09 12:29:49;;;;;;;36.57;24.77;;;4.00;35.90;;;;;;4975582;28;20465;-73
2022/12/09 12:32:32;;;;;;;31.87;21.00;;;4.10;35.80;;;;;;4978521;28;20474;-73
2022/12/09 12:35:12;;;;;;;33.37;22.17;;;4.10;35.60;;;;;;4979481;28;20459;-78
2022/12/09 12:37:47;;;;;;;34.80;22.07;;;4.10;35.60;;;;;;4977245;28;20578;-73
2022/12/09 12:40:24;;;;;;;32.93;21.57;;;4.10;35.70;;;;;;4978110;28;20464;-73
2022/12/09 12:48:47;;;;;;;33.50;20.63;;;4.20;35.20;;;;;;4977436;28;20461;-73
2022/12/09 12:51:25;;;;;;;34.53;21.53;;;4.20;35.20;;;;;;4975362;28;21143;-71
2022/12/09 12:54:01;;;;;;;33.60;21.83;;;4.20;35.20;;;;;;4982133;28;20515;-71
2022/12/09 12:56:32;;;;;;;31.53;21.40;;;4.20;35.30;;;;;;4975871;28;20567;-73